New Albany, Ohio
Current Conditions -  °F | °C
As of 10:51 AM on Friday 28 Nov 2014 (Local Time) from KCMH Reporting Station
Broken Clouds Broken Clouds  
Wind Chill: 22°   Ceiling: 10000
Heat Index: 27°   Visibility: 10mi
Dew Point: 16°   Wind: 5mph
Humidity: 63%   Direction: 270°W
Pressure: 30.36"   Gusts: NA
Location:  40.08°N, 82.81°W
Report Text: KCMH 281551Z 27004KT 10SM SCT027 BKN100 M03/M09 A3036 RMK AO2 SLP292 T10281089
Loading
Personal Weather Stations






























Interactive Weather Map New forecast layout! Learn more

10-Day Weather Forecast

Advertisements
Track Severe Weather on mobile